DTKA/TBJ METAR and TAF weather

Enter ICAO airport designator
Station Type Date Time Source
DTKA METAR 2022/11/30 11:00 UTC NOAA

DTKA 301100Z 34010KT 300V020 9999 SCT020 FEW023CB SCT030 14/09 Q1011 NOSIG CB/SSE


Station Type Date Time Source
DTKA Decoded METAR 2022/11/30 11:00 UTC NOAA

Tabarka, Tunisia (DTKA) 36-57N 008-45E 21M
Nov 30, 2022 - 06:00 AM EST / 2022.11.30 1100 UTC
Wind: from the NNW (340 degrees) at 12 MPH (10 KT) (direction variable):0
Visibility: greater than 7 mile(s):0
Sky conditions: partly cloudy
Weather: Cumulonimbus clouds observed
Temperature: 57 F (14 C)
Dew Point: 48 F (9 C)
Relative Humidity: 71%
Pressure (altimeter): 29.85 in. Hg (1011 hPa)
ob: DTKA 301100Z 34010KT 300V020 9999 SCT020 FEW023CB SCT030 14/09 Q1011 NOSIG CB/SSE
cycle: 11

Station Type Date Time Source
DTKA TAF 2022/11/03 22:06 UTC NOAA

TAF TAF DTKA 032100Z 0322/0410 VRB02KT 9999 FEW020
BECMG 0322/0324 VRB002KT

Example: see airport list